createdAt,value
2019-04-28T00:00:02.243Z,85.26
2019-04-28T00:01:02.233Z,84.75
2019-04-28T00:02:02.226Z,84.85
2019-04-28T00:03:02.224Z,85.41
2019-04-28T00:04:03.484Z,85.30
2019-04-28T00:05:02.193Z,84.79
2019-04-28T00:06:02.187Z,85.10
2019-04-28T00:07:02.169Z,85.36
2019-04-28T00:08:02.159Z,85.30
2019-04-28T00:09:02.161Z,85.41
2019-04-28T00:10:02.137Z,85.36
2019-04-28T00:11:02.126Z,85.16
2019-04-28T00:12:02.116Z,85.06
2019-04-28T00:13:02.106Z,84.64
2019-04-28T00:14:02.098Z,85.06
2019-04-28T00:15:02.539Z,84.85
2019-04-28T00:16:02.074Z,84.75
2019-04-28T00:17:02.067Z,85.06
2019-04-28T00:18:04.154Z,84.64
2019-04-28T00:19:02.047Z,84.75
2019-04-28T00:20:02.032Z,84.75
2019-04-28T00:21:02.031Z,84.75
2019-04-28T00:22:02.014Z,85.06
2019-04-28T00:23:04.180Z,85.26
2019-04-28T00:24:01.990Z,85.47
2019-04-28T00:25:01.991Z,85.16
2019-04-28T00:26:01.969Z,85.26
2019-04-28T00:27:02.002Z,85.16
2019-04-28T00:28:01.946Z,85.36
2019-04-28T00:29:01.935Z,85.36
2019-04-28T00:30:02.198Z,85.26
2019-04-28T00:31:02.495Z,85.26
2019-04-28T00:32:01.904Z,86.50
2019-04-28T00:33:01.906Z,86.43
2019-04-28T00:34:01.884Z,86.54
2019-04-28T00:35:02.435Z,86.23
2019-04-28T00:36:01.862Z,86.33
2019-04-28T00:37:01.850Z,86.40
2019-04-28T00:38:01.840Z,86.50
2019-04-28T00:39:01.847Z,86.60
2019-04-28T00:40:01.818Z,86.43
2019-04-28T00:41:02.415Z,86.43
2019-04-28T00:42:03.305Z,86.70
2019-04-28T00:43:01.786Z,86.95
2019-04-28T00:44:02.023Z,86.74
2019-04-28T00:45:02.050Z,87.15
2019-04-28T00:46:01.755Z,86.85
2019-04-28T00:47:01.743Z,86.85
2019-04-28T00:48:01.732Z,87.15
2019-04-28T00:49:02.212Z,87.26
2019-04-28T00:50:02.260Z,87.46
2019-04-28T00:51:01.921Z,87.05
2019-04-28T00:52:03.103Z,86.91
2019-04-28T00:53:01.868Z,87.36
2019-04-28T00:54:01.669Z,87.73
2019-04-28T00:55:01.683Z,87.57
2019-04-28T00:56:02.145Z,87.77
2019-04-28T00:57:01.649Z,87.57
2019-04-28T00:58:01.625Z,87.46
2019-04-28T00:59:01.781Z,87.73
2019-04-28T01:00:02.430Z,87.73
2019-04-28T01:01:01.595Z,87.73
2019-04-28T01:02:01.586Z,87.84
2019-04-28T01:03:02.150Z,87.46
2019-04-28T01:04:02.124Z,87.67
2019-04-28T01:05:01.895Z,87.52
2019-04-28T01:06:01.962Z,88.04
2019-04-28T01:07:01.671Z,87.73
2019-04-28T01:08:01.519Z,87.67
2019-04-28T01:09:03.805Z,88.18
2019-04-28T01:10:01.599Z,87.77
2019-04-28T01:11:01.860Z,87.84
2019-04-28T01:12:01.901Z,87.84
2019-04-28T01:13:02.092Z,88.14
2019-04-28T01:14:01.802Z,88.14
2019-04-28T01:15:04.536Z,88.24
2019-04-28T01:16:01.434Z,87.94
2019-04-28T01:17:01.423Z,87.84
2019-04-28T01:18:01.413Z,87.94
2019-04-28T01:19:01.402Z,87.84
2019-04-28T01:20:01.398Z,87.94
2019-04-28T01:21:01.390Z,88.04
2019-04-28T01:22:01.369Z,88.14
2019-04-28T01:23:01.360Z,88.14
2019-04-28T01:24:01.349Z,88.04
2019-04-28T01:25:01.340Z,87.84
2019-04-28T01:26:01.338Z,87.90
2019-04-28T01:27:01.327Z,87.63
2019-04-28T01:28:01.311Z,87.79
2019-04-28T01:29:01.296Z,87.94
2019-04-28T01:30:07.970Z,88.10
2019-04-28T01:31:02.275Z,88.10
2019-04-28T01:32:01.262Z,87.94
2019-04-28T01:33:01.264Z,88.20
2019-04-28T01:34:01.655Z,88.35
2019-04-28T01:35:01.234Z,88.35
2019-04-28T01:36:01.220Z,88.45
2019-04-28T01:37:01.213Z,88.24
2019-04-28T01:38:01.197Z,88.35
2019-04-28T01:39:01.200Z,88.31
2019-04-28T01:40:01.176Z,88.31
2019-04-28T01:41:01.595Z,88.14
2019-04-28T01:42:01.155Z,88.31
2019-04-28T01:43:01.162Z,88.31
2019-04-28T01:44:01.134Z,88.10
2019-04-28T01:45:01.135Z,88.10
2019-04-28T01:46:01.113Z,88.31
2019-04-28T01:47:01.269Z,88.31
2019-04-28T01:48:02.307Z,87.49
2019-04-28T01:49:01.080Z,87.90
2019-04-28T01:50:02.061Z,88.00
2019-04-28T01:51:01.082Z,87.49
2019-04-28T01:52:01.317Z,88.10
2019-04-28T01:53:01.045Z,87.49
2019-04-28T01:54:01.026Z,87.18
2019-04-28T01:55:01.016Z,87.18
2019-04-28T01:56:01.007Z,87.07
2019-04-28T01:57:01.545Z,87.28
2019-04-28T01:58:00.984Z,86.97
2019-04-28T01:59:00.973Z,87.28
2019-04-28T02:00:00.963Z,87.38
2019-04-28T02:01:00.954Z,87.18
2019-04-28T02:02:00.941Z,87.07
2019-04-28T02:03:02.098Z,86.56
2019-04-28T02:04:00.919Z,86.66
2019-04-28T02:05:00.909Z,86.77
2019-04-28T02:06:00.898Z,86.66
2019-04-28T02:07:00.887Z,86.25
2019-04-28T02:08:00.875Z,86.25
2019-04-28T02:09:01.031Z,86.56
2019-04-28T02:10:00.919Z,85.94
2019-04-28T02:11:00.842Z,86.25
2019-04-28T02:12:00.921Z,86.35
2019-04-28T02:13:00.823Z,86.15
2019-04-28T02:14:00.810Z,86.25
2019-04-28T02:15:01.276Z,86.25
2019-04-28T02:16:00.791Z,86.35
2019-04-28T02:17:00.777Z,86.15
2019-04-28T02:18:00.767Z,85.63
2019-04-28T02:19:00.759Z,85.74
2019-04-28T02:20:00.889Z,85.43
2019-04-28T02:21:00.747Z,85.33
2019-04-28T02:22:00.722Z,85.12
2019-04-28T02:23:00.711Z,85.33
2019-04-28T02:24:00.700Z,85.33
2019-04-28T02:25:00.702Z,85.53
2019-04-28T02:26:00.683Z,84.61
2019-04-28T02:27:01.049Z,84.88
2019-04-28T02:28:00.656Z,85.02
2019-04-28T02:29:00.649Z,85.22
2019-04-28T02:30:00.635Z,85.02
2019-04-28T02:31:02.282Z,84.81
2019-04-28T02:32:02.216Z,85.02
2019-04-28T02:33:01.702Z,84.50
2019-04-28T02:34:00.800Z,84.50
2019-04-28T02:35:01.592Z,84.91
2019-04-28T02:36:01.413Z,85.02
2019-04-28T02:37:01.622Z,84.71
2019-04-28T02:38:00.551Z,84.91
2019-04-28T02:39:00.864Z,84.91
2019-04-28T02:40:03.330Z,85.02
2019-04-28T02:41:00.517Z,84.71
2019-04-28T02:42:01.455Z,84.20
2019-04-28T02:43:01.255Z,84.40
2019-04-28T02:44:01.047Z,84.50
2019-04-28T02:45:00.763Z,84.61
2019-04-28T02:46:00.805Z,84.50
2019-04-28T02:47:00.975Z,84.09
2019-04-28T02:48:01.066Z,83.78
2019-04-28T02:49:00.957Z,83.37
2019-04-28T02:50:00.913Z,84.50
2019-04-28T02:51:01.231Z,83.48
2019-04-28T02:52:02.925Z,84.20
2019-04-28T02:53:01.715Z,84.09
2019-04-28T02:54:00.680Z,84.09
2019-04-28T02:55:03.090Z,84.40
2019-04-28T02:56:00.968Z,83.48
2019-04-28T02:57:01.298Z,83.68
2019-04-28T02:58:01.404Z,82.96
2019-04-28T02:59:01.006Z,83.48
2019-04-28T03:00:00.620Z,83.78
2019-04-28T03:01:09.682Z,84.09
2019-04-28T03:02:01.317Z,83.99
2019-04-28T03:03:01.470Z,83.99
2019-04-28T03:04:00.473Z,83.99
2019-04-28T03:05:00.565Z,83.27
2019-04-28T03:06:01.385Z,83.23
2019-04-28T03:07:01.327Z,83.68
2019-04-28T03:08:01.048Z,83.99
2019-04-28T03:09:00.413Z,83.68
2019-04-28T03:10:03.236Z,84.09
2019-04-28T03:11:01.068Z,83.48
2019-04-28T03:12:01.553Z,83.89
2019-04-28T03:13:00.987Z,83.89
2019-04-28T03:14:00.949Z,83.99
2019-04-28T03:15:00.620Z,84.09
2019-04-28T03:16:01.488Z,84.09
2019-04-28T03:17:00.869Z,83.78
2019-04-28T03:18:01.742Z,83.48
2019-04-28T03:19:01.257Z,83.78
2019-04-28T03:20:00.981Z,83.68
2019-04-28T03:21:01.693Z,83.89
2019-04-28T03:22:01.350Z,83.68
2019-04-28T03:23:00.937Z,83.68
2019-04-28T03:24:01.252Z,83.78
2019-04-28T03:25:00.874Z,83.03
2019-04-28T03:26:01.437Z,82.86
2019-04-28T03:27:00.610Z,83.27
2019-04-28T03:28:00.651Z,83.58
2019-04-28T03:29:01.014Z,83.27
2019-04-28T03:30:00.914Z,83.44
2019-04-28T03:31:06.433Z,83.48
2019-04-28T03:32:23.106Z,83.37
2019-04-28T03:33:10.988Z,83.17
2019-04-28T03:34:04.105Z,82.96
2019-04-28T03:35:03.120Z,82.76
2019-04-28T03:36:03.723Z,83.06
2019-04-28T03:37:00.910Z,82.55
2019-04-28T03:38:01.260Z,82.76
2019-04-28T03:39:00.706Z,83.17
2019-04-28T03:40:00.616Z,83.37
2019-04-28T03:41:01.009Z,82.55
2019-04-28T03:42:00.203Z,83.27
2019-04-28T03:43:02.876Z,83.89
2019-04-28T03:44:00.545Z,83.37
2019-04-28T03:45:01.068Z,83.37
2019-04-28T03:46:00.758Z,83.17
2019-04-28T03:47:00.714Z,83.78
2019-04-28T03:48:00.350Z,83.99
2019-04-28T03:49:00.809Z,84.40
2019-04-28T03:50:00.166Z,83.99
2019-04-28T03:51:00.676Z,84.09
2019-04-28T03:52:00.402Z,84.20
2019-04-28T03:53:01.066Z,84.40
2019-04-28T03:54:02.414Z,84.20
2019-04-28T03:55:00.508Z,84.30
2019-04-28T03:56:01.527Z,84.30
2019-04-28T03:57:01.304Z,84.20
2019-04-28T03:58:00.899Z,84.20
2019-04-28T03:59:00.483Z,84.09
2019-04-28T04:00:01.434Z,84.09
2019-04-28T04:01:02.683Z,83.78
2019-04-28T04:02:03.170Z,83.89
2019-04-28T04:03:00.815Z,83.99
2019-04-28T04:04:01.184Z,83.89
2019-04-28T04:05:03.293Z,83.99
2019-04-28T04:06:00.864Z,83.37
2019-04-28T04:07:01.502Z,83.27
2019-04-28T04:08:00.868Z,83.68
2019-04-28T04:09:00.325Z,84.20
2019-04-28T04:10:00.952Z,83.78
2019-04-28T04:11:00.230Z,83.78
2019-04-28T04:12:00.314Z,83.17
2019-04-28T04:13:00.885Z,83.06
2019-04-28T04:14:01.674Z,83.37
2019-04-28T04:15:00.770Z,83.37
2019-04-28T04:16:01.557Z,83.06
2019-04-28T04:17:00.125Z,83.06
2019-04-28T04:18:01.279Z,83.89
2019-04-28T04:19:00.701Z,83.78
2019-04-28T04:20:01.831Z,83.54
2019-04-28T04:21:00.773Z,83.89
2019-04-28T04:22:00.359Z,83.85
2019-04-28T04:23:01.460Z,83.78
2019-04-28T04:24:01.123Z,82.96
2019-04-28T04:25:01.254Z,83.17
2019-04-28T04:26:01.653Z,83.78
2019-04-28T04:27:00.877Z,83.48
2019-04-28T04:28:02.981Z,82.96
2019-04-28T04:29:00.954Z,83.27
2019-04-28T04:30:01.572Z,84.09
2019-04-28T04:31:02.516Z,83.58
2019-04-28T04:32:13.864Z,84.09
2019-04-28T04:33:01.269Z,84.20
2019-04-28T04:34:00.693Z,83.99
2019-04-28T04:35:00.695Z,83.89
2019-04-28T04:36:01.653Z,83.27
2019-04-28T04:37:00.746Z,83.99
2019-04-28T04:38:00.519Z,84.20
2019-04-28T04:39:01.768Z,83.99
2019-04-28T04:40:01.375Z,83.99
2019-04-28T04:41:01.553Z,83.99
2019-04-28T04:42:00.648Z,82.96
2019-04-28T04:43:01.521Z,83.06
2019-04-28T04:44:01.137Z,83.37
2019-04-28T04:45:00.507Z,83.89
2019-04-28T04:46:01.426Z,83.06
2019-04-28T04:47:00.988Z,83.58
2019-04-28T04:48:00.654Z,83.68
2019-04-28T04:49:00.716Z,83.68
2019-04-28T04:50:00.285Z,84.09
2019-04-28T04:51:00.759Z,83.78
2019-04-28T04:52:00.392Z,83.58
2019-04-28T04:52:59.088Z,84.09
2019-04-28T04:54:01.073Z,83.99
2019-04-28T04:55:01.288Z,83.99
2019-04-28T04:56:00.359Z,83.68
2019-04-28T04:57:00.065Z,83.68
2019-04-28T04:58:00.789Z,84.09
2019-04-28T04:59:02.196Z,83.99
2019-04-28T04:59:59.981Z,84.30
2019-04-28T05:01:00.794Z,84.20
2019-04-28T05:02:01.710Z,84.09
2019-04-28T05:03:00.850Z,84.09
2019-04-28T05:03:59.626Z,83.78
2019-04-28T05:05:00.415Z,84.71
2019-04-28T05:06:00.138Z,84.61
2019-04-28T05:06:59.715Z,84.71
2019-04-28T05:08:00.324Z,84.20
2019-04-28T05:08:59.925Z,84.26
2019-04-28T05:09:59.499Z,84.61
2019-04-28T05:11:00.036Z,84.40
2019-04-28T05:11:59.753Z,83.99
2019-04-28T05:13:00.229Z,83.75
2019-04-28T05:13:59.686Z,83.75
2019-04-28T05:15:00.492Z,83.54
2019-04-28T05:15:59.849Z,82.92
2019-04-28T05:17:00.676Z,83.03
2019-04-28T05:18:00.226Z,82.82
2019-04-28T05:19:00.106Z,82.82
2019-04-28T05:19:59.710Z,83.23
2019-04-28T05:20:59.500Z,83.37
2019-04-28T05:22:00.029Z,84.05
2019-04-28T05:23:00.263Z,83.37
2019-04-28T05:23:59.637Z,82.92
2019-04-28T05:25:00.062Z,82.20
2019-04-28T05:26:01.493Z,82.41
2019-04-28T05:26:59.733Z,83.03
2019-04-28T05:28:02.683Z,82.51
2019-04-28T05:28:59.528Z,83.03
2019-04-28T05:30:02.450Z,83.33
2019-04-28T05:31:00.100Z,83.75
2019-04-28T05:31:59.893Z,84.16
2019-04-28T05:33:00.262Z,83.85
2019-04-28T05:34:00.019Z,83.70
2019-04-28T05:35:00.153Z,84.42
2019-04-28T05:36:02.609Z,84.67
2019-04-28T05:37:00.542Z,82.92
2019-04-28T05:37:59.751Z,83.13
2019-04-28T05:39:00.141Z,84.01
2019-04-28T05:40:00.638Z,82.78
2019-04-28T05:41:02.318Z,83.33
2019-04-28T05:42:00.646Z,82.17
2019-04-28T05:43:00.525Z,83.44
2019-04-28T05:43:59.603Z,83.50
2019-04-28T05:44:59.920Z,84.56
2019-04-28T05:46:00.175Z,84.63
2019-04-28T05:46:59.546Z,83.81
2019-04-28T05:47:59.433Z,83.61
2019-04-28T05:48:59.974Z,84.01
2019-04-28T05:49:59.893Z,83.85
2019-04-28T05:50:59.937Z,83.29
2019-04-28T05:51:58.444Z,83.29
2019-04-28T05:53:00.399Z,82.57
2019-04-28T05:53:59.501Z,82.17
2019-04-28T05:54:59.796Z,82.68
2019-04-28T05:56:00.074Z,82.68
2019-04-28T05:56:59.741Z,83.09
2019-04-28T05:57:59.936Z,83.15
2019-04-28T05:59:00.511Z,82.23
2019-04-28T06:00:00.984Z,82.64
2019-04-28T06:01:00.106Z,82.03
2019-04-28T06:02:00.499Z,81.51
2019-04-28T06:02:58.327Z,82.03
2019-04-28T06:03:58.315Z,82.84
2019-04-28T06:04:59.926Z,83.15
2019-04-28T06:05:59.977Z,83.15
2019-04-28T06:06:59.759Z,83.36
2019-04-28T06:07:59.619Z,82.19
2019-04-28T06:08:59.819Z,82.13
2019-04-28T06:10:00.053Z,81.99
2019-04-28T06:10:59.890Z,81.68
2019-04-28T06:12:00.025Z,80.86
2019-04-28T06:12:59.767Z,81.48
2019-04-28T06:13:59.929Z,81.43
2019-04-28T06:15:00.035Z,81.34
2019-04-28T06:15:59.887Z,81.64
2019-04-28T06:16:58.174Z,80.62
2019-04-28T06:18:00.000Z,81.20
2019-04-28T06:18:59.978Z,81.29
2019-04-28T06:20:00.061Z,81.20
2019-04-28T06:20:58.129Z,80.33
2019-04-28T06:21:58.118Z,79.48
2019-04-28T06:22:58.108Z,78.86
2019-04-28T06:23:58.098Z,77.94
2019-04-28T06:24:58.108Z,78.25
2019-04-28T06:25:58.086Z,78.97
2019-04-28T06:26:58.101Z,78.35
2019-04-28T06:27:58.054Z,78.25
2019-04-28T06:28:58.048Z,78.15
2019-04-28T06:29:58.033Z,78.39
2019-04-28T06:30:58.032Z,77.23
2019-04-28T06:31:58.084Z,77.64
2019-04-28T06:33:07.733Z,77.73
2019-04-28T06:33:58.990Z,78.66
2019-04-28T06:34:57.978Z,78.66
2019-04-28T06:35:58.016Z,77.94
2019-04-28T06:36:57.966Z,76.61
2019-04-28T06:37:57.946Z,76.81
2019-04-28T06:38:57.934Z,77.02
2019-04-28T06:39:57.923Z,77.23
2019-04-28T06:40:57.912Z,77.84
2019-04-28T06:41:57.901Z,78.25
2019-04-28T06:42:57.907Z,78.31
2019-04-28T06:43:57.878Z,77.91
2019-04-28T06:44:57.868Z,77.60
2019-04-28T06:45:57.857Z,77.80
2019-04-28T06:46:57.849Z,77.46
2019-04-28T06:47:57.835Z,76.84
2019-04-28T06:48:57.834Z,75.93
2019-04-28T06:49:57.813Z,76.43
2019-04-28T06:50:57.803Z,76.95
2019-04-28T06:51:57.791Z,75.93
2019-04-28T06:52:57.782Z,75.31
2019-04-28T06:53:57.770Z,75.21
2019-04-28T06:54:57.774Z,75.72
2019-04-28T06:55:57.749Z,76.03
2019-04-28T06:56:57.742Z,75.72
2019-04-28T06:57:57.728Z,75.52
2019-04-28T06:58:59.252Z,75.52
2019-04-28T06:59:57.706Z,75.99
2019-04-28T07:00:57.728Z,75.27
2019-04-28T07:01:57.684Z,75.27
2019-04-28T07:02:57.674Z,75.04
2019-04-28T07:03:57.664Z,74.43
2019-04-28T07:05:02.260Z,73.20
2019-04-28T07:05:57.643Z,73.81
2019-04-28T07:06:57.642Z,73.23
2019-04-28T07:07:57.620Z,72.58
2019-04-28T07:08:57.612Z,72.99
2019-04-28T07:09:57.597Z,71.83
2019-04-28T07:10:57.586Z,72.75
2019-04-28T07:11:57.576Z,73.77
2019-04-28T07:12:57.574Z,72.55
2019-04-28T07:13:57.554Z,71.83
2019-04-28T07:14:57.541Z,71.29
2019-04-28T07:15:57.536Z,72.00
2019-04-28T07:16:57.519Z,71.94
2019-04-28T07:17:57.509Z,71.39
2019-04-28T07:18:57.513Z,71.59
2019-04-28T07:19:57.489Z,71.97
2019-04-28T07:20:57.478Z,71.80
2019-04-28T07:21:57.466Z,71.36
2019-04-28T07:22:57.457Z,71.19
2019-04-28T07:23:57.444Z,70.95
2019-04-28T07:24:57.451Z,70.98
2019-04-28T07:25:57.426Z,70.47
2019-04-28T07:26:57.412Z,70.68
2019-04-28T07:27:57.401Z,71.59
2019-04-28T07:28:57.390Z,71.46
2019-04-28T07:29:57.381Z,70.54
2019-04-28T07:30:57.378Z,70.64
2019-04-28T07:31:57.357Z,70.44
2019-04-28T07:32:57.349Z,70.34
2019-04-28T07:33:57.335Z,69.82
2019-04-28T07:34:57.324Z,70.17
2019-04-28T07:35:57.312Z,69.93
2019-04-28T07:36:57.329Z,69.59
2019-04-28T07:37:57.290Z,69.49
2019-04-28T07:38:57.280Z,69.01
2019-04-28T07:39:57.270Z,68.91
2019-04-28T07:40:57.259Z,69.32
2019-04-28T07:41:57.248Z,68.43
2019-04-28T07:42:57.267Z,69.11
2019-04-28T07:43:57.225Z,69.21
2019-04-28T07:44:57.216Z,69.24
2019-04-28T07:45:57.214Z,70.44
2019-04-28T07:46:57.195Z,70.54
2019-04-28T07:47:57.183Z,69.21
2019-04-28T07:48:57.183Z,69.62
2019-04-28T07:49:57.161Z,70.23
2019-04-28T07:50:57.156Z,70.23
2019-04-28T07:51:57.142Z,70.54
2019-04-28T07:52:57.128Z,70.06
2019-04-28T07:53:57.117Z,70.03
2019-04-28T07:54:57.115Z,70.37
2019-04-28T07:55:57.095Z,69.76
2019-04-28T07:56:57.083Z,70.06
2019-04-28T07:57:57.073Z,69.96
2019-04-28T07:58:57.061Z,70.78
2019-04-28T07:59:57.051Z,70.88
2019-04-28T08:00:57.050Z,70.88
2019-04-28T08:01:57.028Z,70.37
2019-04-28T08:02:57.019Z,70.95
2019-04-28T08:03:57.589Z,70.54
2019-04-28T08:04:56.999Z,70.23
2019-04-28T08:05:57.080Z,70.34
2019-04-28T08:06:56.983Z,70.10
2019-04-28T08:07:56.962Z,69.32
2019-04-28T08:08:56.950Z,68.80
2019-04-28T08:09:56.940Z,69.93
2019-04-28T08:10:56.933Z,69.35
2019-04-28T08:11:56.917Z,69.11
2019-04-28T08:12:56.919Z,69.32
2019-04-28T08:13:56.894Z,69.62
2019-04-28T08:14:56.885Z,70.37
2019-04-28T08:15:56.873Z,69.86
2019-04-28T08:16:56.864Z,69.96
2019-04-28T08:17:56.852Z,69.82
2019-04-28T08:18:56.851Z,69.93
2019-04-28T08:19:56.830Z,70.34
2019-04-28T08:20:56.817Z,68.60
2019-04-28T08:21:56.812Z,67.89
2019-04-28T08:22:56.794Z,65.95
2019-04-28T08:23:56.794Z,67.48
2019-04-28T08:24:56.783Z,67.45
2019-04-28T08:25:56.763Z,68.47
2019-04-28T08:26:56.750Z,67.85
2019-04-28T08:27:56.743Z,68.54
2019-04-28T08:28:56.728Z,67.04
2019-04-28T08:29:58.606Z,67.45
2019-04-28T08:30:56.721Z,67.24
2019-04-28T08:31:56.695Z,66.42
2019-04-28T08:32:56.685Z,67.18
2019-04-28T08:34:02.699Z,66.46
2019-04-28T08:34:57.660Z,65.13
2019-04-28T08:35:56.651Z,65.57
2019-04-28T08:36:56.650Z,66.39
2019-04-28T08:37:56.635Z,67.30
2019-04-28T08:38:56.622Z,66.97
2019-04-28T08:39:56.607Z,67.99
2019-04-28T08:40:56.596Z,66.56
2019-04-28T08:41:56.585Z,66.36
2019-04-28T08:42:56.586Z,65.34
2019-04-28T08:43:56.568Z,66.15
2019-04-28T08:44:56.552Z,65.92
2019-04-28T08:45:56.541Z,66.46
2019-04-28T08:46:56.530Z,66.12
2019-04-28T08:47:58.007Z,66.53
2019-04-28T08:48:56.529Z,65.10
2019-04-28T08:49:56.500Z,63.98
2019-04-28T08:50:56.486Z,65.64
2019-04-28T08:51:56.483Z,65.54
2019-04-28T08:52:56.465Z,66.66
2019-04-28T08:53:56.453Z,66.53
2019-04-28T08:54:56.453Z,66.22
2019-04-28T08:55:56.431Z,67.35
2019-04-28T08:56:56.420Z,66.80
2019-04-28T08:57:56.410Z,66.91
2019-04-28T08:58:56.397Z,66.09
2019-04-28T08:59:56.387Z,65.34
2019-04-28T09:00:56.389Z,64.60
2019-04-28T09:01:56.365Z,64.90
2019-04-28T09:02:56.354Z,65.39
2019-04-28T09:03:56.343Z,64.67
2019-04-28T09:04:56.332Z,64.78
2019-04-28T09:05:56.321Z,62.74
2019-04-28T09:06:56.323Z,62.63
2019-04-28T09:07:56.301Z,63.04
2019-04-28T09:08:56.293Z,62.84
2019-04-28T09:09:56.278Z,62.46
2019-04-28T09:10:56.270Z,62.97
2019-04-28T09:11:56.259Z,62.77
2019-04-28T09:12:56.257Z,62.90
2019-04-28T09:13:56.245Z,62.87
2019-04-28T09:14:56.225Z,62.80
2019-04-28T09:15:56.214Z,61.47
2019-04-28T09:16:56.204Z,61.98
2019-04-28T09:17:56.193Z,62.08
2019-04-28T09:18:56.194Z,61.47
2019-04-28T09:19:56.185Z,63.00
2019-04-28T09:20:56.161Z,62.56
2019-04-28T09:21:56.152Z,61.75
2019-04-28T09:22:56.141Z,61.24
2019-04-28T09:23:56.129Z,60.83
2019-04-28T09:24:56.131Z,60.22
2019-04-28T09:25:56.113Z,60.70
2019-04-28T09:26:56.102Z,61.21
2019-04-28T09:27:56.090Z,58.59
2019-04-28T09:28:56.081Z,60.80
2019-04-28T09:29:56.063Z,60.91
2019-04-28T09:30:56.063Z,61.00
2019-04-28T09:31:56.042Z,60.30
2019-04-28T09:32:56.032Z,60.32
2019-04-28T09:33:56.022Z,60.83
2019-04-28T09:34:56.010Z,60.39
2019-04-28T09:35:56.002Z,60.73
2019-04-28T09:36:56.000Z,61.65
2019-04-28T09:37:55.978Z,61.14
2019-04-28T09:38:55.972Z,62.66
2019-04-28T09:39:55.957Z,62.36
2019-04-28T09:40:55.946Z,62.29
2019-04-28T09:41:55.936Z,62.39
2019-04-28T09:42:55.934Z,61.68
2019-04-28T09:43:55.912Z,60.66
2019-04-28T09:44:55.900Z,61.37
2019-04-28T09:45:55.890Z,61.04
2019-04-28T09:46:55.945Z,61.54
2019-04-28T09:47:55.868Z,62.33
2019-04-28T09:48:55.875Z,62.87
2019-04-28T09:49:55.847Z,61.82
2019-04-28T09:50:55.834Z,60.30
2019-04-28T09:51:55.824Z,60.30
2019-04-28T09:52:55.814Z,59.99
2019-04-28T09:53:55.802Z,59.68
2019-04-28T09:54:55.808Z,59.38
2019-04-28T09:55:55.781Z,58.33
2019-04-28T09:56:57.086Z,58.44
2019-04-28T09:57:55.760Z,58.94
2019-04-28T09:58:55.749Z,58.33
2019-04-28T09:59:55.739Z,59.45
2019-04-28T10:00:55.740Z,59.14
2019-04-28T10:01:55.721Z,59.66
2019-04-28T10:02:55.709Z,57.21
2019-04-28T10:03:55.697Z,58.10
2019-04-28T10:04:55.685Z,57.72
2019-04-28T10:05:55.675Z,57.79
2019-04-28T10:06:55.675Z,57.72
2019-04-28T10:07:55.653Z,57.52
2019-04-28T10:08:55.643Z,59.05
2019-04-28T10:09:55.649Z,59.25
2019-04-28T10:10:55.621Z,59.55
2019-04-28T10:11:55.610Z,58.53
2019-04-28T10:12:55.612Z,58.03
2019-04-28T10:13:57.081Z,57.92
2019-04-28T10:14:55.578Z,57.92
2019-04-28T10:15:55.567Z,59.05
2019-04-28T10:16:55.556Z,59.05
2019-04-28T10:17:55.546Z,58.44
2019-04-28T10:18:55.546Z,59.14
2019-04-28T10:19:55.527Z,58.44
2019-04-28T10:20:55.516Z,58.64
2019-04-28T10:21:55.503Z,59.55
2019-04-28T10:22:55.493Z,59.14
2019-04-28T10:23:55.482Z,59.22
2019-04-28T10:24:55.481Z,59.14
2019-04-28T10:25:55.461Z,58.61
2019-04-28T10:26:55.449Z,57.69
2019-04-28T10:27:55.439Z,58.33
2019-04-28T10:28:55.433Z,58.61
2019-04-28T10:29:55.432Z,58.92
2019-04-28T10:30:55.423Z,58.40
2019-04-28T10:31:55.399Z,58.81
2019-04-28T10:32:55.386Z,60.14
2019-04-28T10:33:55.373Z,59.60
2019-04-28T10:34:55.489Z,58.28
2019-04-28T10:35:55.351Z,58.69
2019-04-28T10:36:55.351Z,57.97
2019-04-28T10:37:55.330Z,57.67
2019-04-28T10:38:55.321Z,57.06
2019-04-28T10:39:55.308Z,58.38
2019-04-28T10:40:55.297Z,58.28
2019-04-28T10:41:55.287Z,58.17
2019-04-28T10:42:55.289Z,58.69
2019-04-28T10:43:55.291Z,58.81
2019-04-28T10:44:55.259Z,58.51
2019-04-28T10:45:55.243Z,59.01
2019-04-28T10:46:55.232Z,59.42
2019-04-28T10:47:55.223Z,59.63
2019-04-28T10:48:55.223Z,58.92
2019-04-28T10:49:55.203Z,59.73
2019-04-28T10:50:55.190Z,58.92
2019-04-28T10:51:59.529Z,58.61
2019-04-28T10:52:55.169Z,58.20
2019-04-28T10:53:55.158Z,56.68
2019-04-28T10:54:55.159Z,56.57
2019-04-28T10:55:55.136Z,56.88
2019-04-28T10:56:55.127Z,57.59
2019-04-28T10:57:55.115Z,57.90
2019-04-28T10:58:55.108Z,58.20
2019-04-28T10:59:55.094Z,57.49
2019-04-28T11:00:55.101Z,58.30
2019-04-28T11:01:55.072Z,57.90
2019-04-28T11:02:55.061Z,58.00
2019-04-28T11:03:55.050Z,57.90
2019-04-28T11:05:07.479Z,57.69
2019-04-28T11:05:56.046Z,58.51
2019-04-28T11:06:55.018Z,58.99
2019-04-28T11:07:55.011Z,56.98
2019-04-28T11:08:54.995Z,57.26
2019-04-28T11:09:54.984Z,59.01
2019-04-28T11:10:54.974Z,58.40
2019-04-28T11:11:54.977Z,58.40
2019-04-28T11:12:54.953Z,58.17
2019-04-28T11:13:54.948Z,58.28
2019-04-28T11:14:54.931Z,58.30
2019-04-28T11:15:54.936Z,57.82
2019-04-28T11:16:54.909Z,58.97
2019-04-28T11:17:54.911Z,60.93
2019-04-28T11:18:54.889Z,61.27
2019-04-28T11:19:54.884Z,63.00
2019-04-28T11:20:54.872Z,63.64
2019-04-28T11:21:54.855Z,63.37
2019-04-28T11:22:54.844Z,64.18
2019-04-28T11:23:54.845Z,65.03
2019-04-28T11:24:54.826Z,64.83
2019-04-28T11:25:54.817Z,64.11
2019-04-28T11:26:54.802Z,64.52
2019-04-28T11:27:55.551Z,66.15
2019-04-28T11:28:54.781Z,65.47
2019-04-28T11:29:54.782Z,66.18
2019-04-28T11:30:54.758Z,68.23
2019-04-28T11:31:54.748Z,70.37
2019-04-28T11:32:54.735Z,72.21
2019-04-28T11:33:54.724Z,70.78
2019-04-28T11:34:54.713Z,72.21
2019-04-28T11:35:54.714Z,72.21
2019-04-28T11:36:54.692Z,73.33
2019-04-28T11:37:54.680Z,74.97
2019-04-28T11:38:54.675Z,71.70
2019-04-28T11:39:54.658Z,73.44
2019-04-28T11:40:54.648Z,73.23
2019-04-28T11:41:54.666Z,71.59
2019-04-28T11:42:54.643Z,71.39
2019-04-28T11:43:54.615Z,73.44
2019-04-28T11:44:54.605Z,71.67
2019-04-28T11:45:54.594Z,71.67
2019-04-28T11:46:54.587Z,70.44
2019-04-28T11:47:54.613Z,70.34
2019-04-28T11:48:54.563Z,71.73
2019-04-28T11:49:54.552Z,69.08
2019-04-28T11:50:54.541Z,67.14
2019-04-28T11:51:54.530Z,68.37
2019-04-28T11:52:54.520Z,66.63
2019-04-28T11:53:54.521Z,65.37
2019-04-28T11:54:54.496Z,66.60
2019-04-28T11:55:54.502Z,66.09
2019-04-28T11:56:54.475Z,64.76
2019-04-28T11:57:54.467Z,65.25
2019-04-28T11:58:54.452Z,64.84
2019-04-28T11:59:54.456Z,65.55
2019-04-28T12:00:54.431Z,63.92
2019-04-28T12:01:54.420Z,61.95
2019-04-28T12:02:54.428Z,61.14
2019-04-28T12:03:54.407Z,61.04
2019-04-28T12:04:54.391Z,61.07
2019-04-28T12:05:54.394Z,61.85
2019-04-28T12:06:54.371Z,63.38
2019-04-28T12:07:54.356Z,63.38
2019-04-28T12:08:54.350Z,63.24
2019-04-28T12:10:04.875Z,63.38
2019-04-28T12:10:55.349Z,62.74
2019-04-28T12:11:54.313Z,60.02
2019-04-28T12:12:54.303Z,58.39
2019-04-28T12:13:54.303Z,57.04
2019-04-28T12:14:54.283Z,56.55
2019-04-28T12:15:54.279Z,56.24
2019-04-28T12:16:54.276Z,55.74
2019-04-28T12:17:54.246Z,57.17
2019-04-28T12:18:54.234Z,56.76
2019-04-28T12:19:54.224Z,56.96
2019-04-28T12:20:54.214Z,57.26
2019-04-28T12:21:54.202Z,58.89
2019-04-28T12:22:54.231Z,58.08
2019-04-28T12:23:54.182Z,54.69
2019-04-28T12:24:54.168Z,56.32
2019-04-28T12:25:54.160Z,56.12
2019-04-28T12:26:54.145Z,56.12
2019-04-28T12:27:54.135Z,56.09
2019-04-28T12:28:54.154Z,56.81
2019-04-28T12:29:54.113Z,56.70
2019-04-28T12:30:54.106Z,54.44
2019-04-28T12:31:54.100Z,55.25
2019-04-28T12:32:54.084Z,55.35
2019-04-28T12:33:54.069Z,56.47
2019-04-28T12:34:54.071Z,53.80
2019-04-28T12:35:54.047Z,54.74
2019-04-28T12:36:54.038Z,57.49
2019-04-28T12:37:54.026Z,55.15
2019-04-28T12:38:54.018Z,56.27
2019-04-28T12:39:54.004Z,56.55
2019-04-28T12:40:54.005Z,57.06
2019-04-28T12:41:53.985Z,54.92
2019-04-28T12:42:53.973Z,54.90
2019-04-28T12:43:53.961Z,55.81
2019-04-28T12:44:53.953Z,55.00
2019-04-28T12:45:53.940Z,54.05
2019-04-28T12:46:53.963Z,54.26
2019-04-28T12:47:53.918Z,54.77
2019-04-28T12:48:53.908Z,55.27
2019-04-28T12:49:53.898Z,55.38
2019-04-28T12:50:53.891Z,54.66
2019-04-28T12:51:53.875Z,55.35